Latest Weather Observations for Rhyll

IDV60801

Issued at 6:52 pm EDT Monday 17 January 2022 (issued every 10 minutes, with the page automatically refreshed every 10 minutes)

About weather observations | Map of weather stations | Latest weather observations for VIC | Other Formats
Station Details ID: 086373 Name: RHYLL Lat: -38.46 Lon: 145.31 Height: 13.4 m
Data from the previous 72 hours. | See also: Recent months at Rhyll
Date/Time
EDT
Temp
°C
App
Temp
°C
Dew
Point
°C
Rel
Hum
%
Delta-T
°C
Wind Press
QNH
hPa
Press
MSL
hPa
Rain since
9am
mm
Dir  Spd
km/h
Gust
km/h
Spd
kts
Gust
kts
17/06:30pm 18.8 15.8 11.9 64 3.8 SSW 19 28 10 15 1012.4 1012.3 0.0
17/06:00pm 19.3 16.4 12.3 64 3.9 SSW 19 30 10 16 1012.1 1012.0 0.0
17/05:30pm 20.5 19.0 13.0 62 4.3 SSW 13 28 7 15 1011.8 1011.7 0.0
17/05:00pm 20.7 17.6 12.1 58 4.8 SSW 20 32 11 17 1011.7 1011.6 0.0
17/04:30pm 21.0 19.2 14.4 66 3.9 SSW 17 35 9 19 1011.6 1011.5 0.0
17/04:00pm 21.1 18.5 13.8 63 4.2 SSW 20 32 11 17 1011.5 1011.4 0.0
17/03:30pm 20.4 18.0 14.5 69 3.4 SW 20 33 11 18 1011.3 1011.2 0.0
17/03:00pm 22.9 21.7 15.0 61 4.7 S 15 26 8 14 1011.2 1011.1 0.0
17/02:30pm 23.3 22.5 14.0 56 5.4 S 11 19 6 10 1011.2 1011.1 0.0
17/02:00pm 23.1 22.6 14.9 60 4.9 S 11 17 6 9 1011.2 1011.1 0.0
17/01:30pm 22.6 21.2 14.4 60 4.8 SSW 15 24 8 13 1011.3 1011.2 0.0
17/01:00pm 22.1 20.2 14.2 61 4.6 SW 17 24 9 13 1011.4 1011.3 0.0
17/12:30pm 21.3 20.3 14.5 65 4.0 SW 13 26 7 14 1011.6 1011.5 0.0
17/12:00pm 19.9 18.6 13.8 68 3.5 SW 13 22 7 12 1011.8 1011.7 0.0
17/11:30am 18.8 18.3 14.9 78 2.3 WSW 11 20 6 11 1011.7 1011.6 0.0
17/11:00am 18.9 17.2 13.7 72 3.0 WSW 15 22 8 12 1011.3 1011.2 0.0
17/10:30am 18.7 17.3 14.4 76 2.5 SW 15 22 8 12 1010.8 1010.7 0.0
17/10:00am 19.2 18.2 14.5 74 2.7 SW 13 26 7 14 1010.8 1010.7 0.0
17/09:30am 18.6 17.8 13.9 74 2.7 SW 11 20 6 11 1010.6 1010.5 0.0
17/09:00am 19.1 17.7 13.5 70 3.2 SW 13 28 7 15 1010.5 1010.4 0.0
17/08:30am 18.5 17.4 14.2 76 2.5 SW 13 24 7 13 1010.6 1010.5 0.0
17/08:00am 18.2 16.7 14.3 78 2.2 SW 15 30 8 16 1010.1 1010.0 0.0
17/07:30am 18.0 17.7 15.4 85 1.5 WSW 11 17 6 9 1009.5 1009.4 0.0
17/07:00am 18.0 16.9 15.4 85 1.5 SW 15 28 8 15 1008.1 1008.0 0.0
17/06:30am 18.1 17.1 15.7 86 1.4 WSW 15 26 8 14 1008.0 1007.9 0.0
17/06:00am 18.3 17.6 16.3 88 1.2 WSW 15 26 8 14 1007.0 1006.9 0.0
17/05:30am 18.4 16.9 16.7 90 1.0 WSW 20 32 11 17 1006.2 1006.1 0.0
17/05:00am 18.5 18.0 16.8 90 1.0 WSW 15 28 8 15 1005.7 1005.6 0.0
17/04:30am 18.8 18.4 17.1 90 1.0 WSW 15 28 8 15 1005.4 1005.3 0.0
17/04:00am 19.7 20.1 17.3 86 1.5 W 11 32 6 17 1005.2 1005.1 0.0
17/03:30am 20.7 22.1 17.7 83 1.8 WNW 7 13 4 7 1004.6 1004.5 0.0
17/03:00am 20.9 22.6 18.1 84 1.7 WNW 6 11 3 6 1004.3 1004.2 0.0
17/02:30am 21.0 22.5 18.0 83 1.9 WNW 7 13 4 7 1004.1 1004.0 0.0
17/02:00am 21.4 22.5 17.2 77 2.6 W 7 9 4 5 1004.0 1003.9 0.0
17/01:30am 22.0 22.8 17.2 74 2.9 NNE 9 13 5 7 1004.0 1003.9 0.0
17/01:00am 22.4 23.9 18.0 76 2.8 NNE 7 11 4 6 1004.3 1004.2 0.0
17/12:30am 22.6 23.1 18.4 77 2.6 NE 13 17 7 9 1004.4 1004.3 0.0
17/12:00am 22.9 22.2 18.7 77 2.7 NE 20 24 11 13 1004.2 1004.1 0.0
 
Date/Time
EDT
Temp
°C
App
Temp
°C
Dew
Point
°C
Rel
Hum
%
Delta-T
°C
Wind Press
QNH
hPa
Press
MSL
hPa
Rain since
9am
mm
Dir  Spd
km/h
Gust
km/h
Spd
kts
Gust
kts
16/11:30pm 22.5 23.3 19.1 81 2.2 NE 13 19 7 10 1004.5 1004.4 0.0
16/11:00pm 21.7 22.5 19.1 85 1.6 ENE 13 19 7 10 1004.7 1004.6 0.0
16/10:30pm 21.6 23.6 19.2 86 1.5 E 7 11 4 6 1005.2 1005.1 0.0
16/10:00pm 21.5 23.0 18.9 85 1.6 E 9 11 5 6 1005.6 1005.5 0.0
16/09:30pm 21.2 23.1 18.9 87 1.4 SSE 7 11 4 6 1005.6 1005.5 0.0
16/09:00pm 21.5 23.3 18.7 84 1.8 SSE 7 9 4 5 1005.7 1005.6 0.0
16/08:30pm 21.7 22.6 18.3 81 2.1 SE 11 17 6 9 1005.6 1005.5 0.0
16/08:00pm 21.8 22.1 18.0 79 2.4 SE 13 19 7 10 1005.3 1005.2 0.0
16/07:30pm 21.3 21.4 17.5 79 2.3 SSE 13 20 7 11 1005.4 1005.3 0.0
16/07:00pm 21.6 21.1 16.8 74 2.9 SSE 15 20 8 11 1006.0 1005.9 0.0
16/06:30pm 22.0 21.5 16.9 73 3.1 SSE 15 20 8 11 1006.2 1006.1 0.0
16/06:00pm 22.0 21.1 16.9 73 3.1 SSE 17 22 9 12 1006.2 1006.1 0.0
16/05:30pm 22.0 20.6 16.5 71 3.3 SSE 19 24 10 13 1006.8 1006.7 0.0
16/05:00pm 22.3 20.9 17.0 72 3.3 SSE 20 26 11 14 1006.9 1006.8 0.0
16/04:30pm 22.7 21.2 16.3 67 3.9 SSE 19 24 10 13 1007.3 1007.2 0.0
16/04:00pm 23.4 22.3 16.4 64 4.3 SSE 17 22 9 12 1007.6 1007.5 0.0
16/03:30pm 23.7 22.9 16.2 63 4.6 SSE 15 20 8 11 1007.6 1007.5 0.0
16/03:00pm 24.1 23.2 15.9 60 5.0 SSE 15 19 8 10 1007.5 1007.4 0.0
16/02:30pm 24.0 23.7 15.5 59 5.1 SSE 11 15 6 8 1007.8 1007.7 0.0
16/02:00pm 23.9 23.7 15.7 60 5.0 SSE 11 13 6 7 1008.0 1007.9 0.0
16/01:30pm 23.4 23.8 15.2 60 4.9 SSE 7 9 4 5 1008.4 1008.3 0.0
16/01:00pm 23.5 24.1 15.3 60 4.9 SE 6 9 3 5 1008.8 1008.7 0.0
16/12:30pm 22.3 22.6 13.4 57 5.1 SE 4 6 2 3 1009.3 1009.2 0.0
16/12:00pm 22.9 23.7 14.7 60 4.9 SE 4 6 2 3 1009.7 1009.6 0.0
16/11:30am 22.9 23.2 14.5 59 5.0 SE 6 7 3 4 1009.8 1009.7 0.0
16/11:00am 22.3 22.5 14.2 60 4.7 ESE 6 7 3 4 1009.8 1009.7 0.0
16/10:30am 21.7 21.9 14.1 62 4.4 ESE 6 9 3 5 1009.5 1009.4 0.0
16/10:00am 20.8 20.8 13.7 64 4.1 NE 6 7 3 4 1009.7 1009.6 0.0
16/09:30am 20.6 20.6 13.6 64 4.0 SE 6 7 3 4 1009.6 1009.5 0.0
16/09:00am 18.4 18.5 12.8 70 3.1 SSW 4 7 2 4 1009.7 1009.6 0.0
16/08:30am 17.5 17.9 12.6 73 2.7 WNW 2 6 1 3 1009.7 1009.6 0.0
16/08:00am 17.8 18.3 12.9 73 2.7 SW 2 6 1 3 1009.2 1009.1 0.0
16/07:30am 16.6 16.8 12.0 74 2.5 WSW 2 4 1 2 1008.9 1008.8 0.0
16/07:00am 15.4 15.3 12.0 80 1.9 SW 4 4 2 2 1008.7 1008.6 0.0
16/06:30am 15.2 14.6 11.6 79 1.9 WSW 6 7 3 4 1008.7 1008.6 0.0
16/06:00am 15.4 15.2 11.8 79 2.0 SW 4 7 2 4 1008.5 1008.4 0.0
16/05:30am 15.5 15.0 12.1 80 1.9 WSW 6 7 3 4 1008.7 1008.6 0.0
16/05:00am 14.9 14.8 12.2 84 1.5 W 4 7 2 4 1008.4 1008.3 0.0
16/04:30am 15.1 14.8 12.8 86 1.3 W 6 7 3 4 1008.1 1008.0 0.0
16/04:00am 15.3 14.8 12.2 82 1.7 W 6 7 3 4 1008.0 1007.9 0.0
16/03:30am 15.1 14.4 11.5 79 1.9 W 6 7 3 4 1007.9 1007.8 0.0
16/03:00am 15.3 14.6 11.5 78 2.0 WSW 6 7 3 4 1008.0 1007.9 0.0
16/02:30am 15.4 14.8 11.6 78 2.0 WSW 6 9 3 5 1008.1 1008.0 0.0
16/02:00am 15.6 15.0 11.6 77 2.2 WSW 6 9 3 5 1008.2 1008.1 0.0
16/01:30am 15.9 15.4 12.1 78 2.1 WSW 6 11 3 6 1008.6 1008.5 0.0
16/01:00am 16.0 15.4 12.4 79 2.0 WSW 7 13 4 7 1008.7 1008.6 0.0
16/12:30am 15.5 15.2 12.8 84 1.5 W 6 9 3 5 1008.7 1008.6 0.0
16/12:00am 15.8 16.2 13.6 87 1.2 W 4 6 2 3 1008.7 1008.6 0.0
 
Date/Time
EDT
Temp
°C
App
Temp
°C
Dew
Point
°C
Rel
Hum
%
Delta-T
°C
Wind Press
QNH
hPa
Press
MSL
hPa
Rain since
9am
mm
Dir  Spd
km/h
Gust
km/h
Spd
kts
Gust
kts
15/11:30pm 16.3 16.4 14.0 86 1.3 WSW 6 9 3 5 1008.7 1008.6 0.0
15/11:00pm 16.6 16.6 14.2 86 1.4 WSW 7 13 4 7 1008.7 1008.6 0.0
15/10:30pm 16.7 16.4 14.3 86 1.4 SW 9 15 5 8 1008.4 1008.3 0.0
15/10:00pm 17.0 15.9 14.3 84 1.5 SW 13 17 7 9 1008.4 1008.3 0.0
15/09:30pm 17.1 16.4 14.2 83 1.7 SW 11 19 6 10 1008.4 1008.3 0.0
15/09:00pm 17.4 16.0 13.5 78 2.2 SW 13 22 7 12 1008.5 1008.4 0.0
15/08:30pm 17.9 16.0 13.0 73 2.7 SW 15 22 8 12 1007.7 1007.6 0.0
15/08:00pm 18.2 16.4 13.3 73 2.8 SW 15 28 8 15 1006.8 1006.7 0.0
15/07:30pm 18.2 16.5 13.7 75 2.6 WSW 15 30 8 16 1007.0 1006.9 0.0
15/07:22pm 18.6 16.7 14.1 75 2.6 WSW 17 30 9 16 1006.8 1006.7 0.0
15/07:10pm 19.3 17.8 14.1 72 3.0 WSW 15 26 8 14 1009.1 1009.0 0.0
15/07:00pm 19.6 18.9 15.3 76 2.5 WSW 13 24 7 13 1007.1 1007.0 0.0
15/06:30pm 19.7 18.4 14.9 74 2.8 SW 15 24 8 13 1006.8 1006.7 0.0
15/06:00pm 19.9 18.5 15.5 76 2.6 SW 17 28 9 15 1006.6 1006.5 0.0
15/05:30pm 20.2 18.2 15.0 72 3.1 SW 19 32 10 17 1006.4 1006.3 0.0
15/05:00pm 20.6 17.6 14.9 70 3.4 SW 24 39 13 21 1006.2 1006.1 0.0
15/04:30pm 20.3 17.9 15.3 73 3.0 WSW 22 39 12 21 1006.4 1006.3 0.0
15/04:00pm 20.9 19.0 15.7 72 3.1 SW 20 35 11 19 1006.1 1006.0 0.0
15/03:30pm 21.1 19.0 15.2 69 3.5 SW 20 33 11 18 1006.0 1005.9 0.0
15/03:00pm 21.3 19.0 15.6 70 3.4 SW 22 33 12 18 1005.8 1005.7 0.0
15/02:30pm 21.6 20.3 15.7 69 3.5 WSW 17 30 9 16 1005.7 1005.6 0.0
15/02:00pm 20.9 19.9 15.7 72 3.1 SW 15 22 8 12 1005.6 1005.5 0.0
15/01:30pm 20.1 18.6 15.3 74 2.8 SW 17 28 9 15 1005.7 1005.6 0.0
15/01:00pm 20.3 18.9 15.5 74 2.9 WSW 17 28 9 15 1005.6 1005.5 0.0
15/12:30pm 20.4 19.3 16.4 78 2.4 WSW 17 24 9 13 1005.3 1005.2 0.0
15/12:00pm 19.8 18.9 16.8 83 1.8 WSW 17 35 9 19 1005.3 1005.2 0.0
15/11:30am 19.1 17.9 16.1 83 1.8 WSW 17 28 9 15 1005.0 1004.9 0.0
15/11:00am 19.6 19.0 16.6 83 1.8 WSW 15 28 8 15 1004.6 1004.5 0.0
15/10:30am 19.1 19.5 16.3 84 1.7 W 9 17 5 9 1004.5 1004.4 0.0
15/10:00am 18.8 19.7 16.2 85 1.6 WNW 6 11 3 6 1004.4 1004.3 0.0
15/09:30am 18.6 20.0 16.4 87 1.3 WNW 4 7 2 4 1004.3 1004.2 0.0
15/09:00am 18.4 19.8 16.4 88 1.2 WNW 4 6 2 3 1004.0 1003.9 2.6
15/08:30am 18.2 19.1 16.2 88 1.2 NW 6 9 3 5 1003.7 1003.6 2.6
15/08:00am 18.2 19.2 16.4 89 1.1 W 6 15 3 8 1003.3 1003.2 2.6
15/07:30am 17.9 18.6 16.1 89 1.1 WSW 7 15 4 8 1002.8 1002.7 2.6
15/07:00am 17.7 18.0 15.9 89 1.1 WSW 9 19 5 10 1002.7 1002.6 2.6
15/06:30am 17.7 18.0 15.9 89 1.1 W 9 17 5 9 1002.4 1002.3 2.6
15/06:00am 17.7 18.0 16.0 90 1.0 W 9 19 5 10 1002.3 1002.2 2.6
15/05:30am 17.9 17.9 16.2 90 1.0 W 11 20 6 11 1002.2 1002.1 2.6
15/05:00am 17.7 17.4 16.4 92 0.8 WSW 13 20 7 11 1002.0 1001.9 2.6
15/04:30am 17.4 16.4 16.6 95 0.5 W 17 35 9 19 1001.7 1001.6 2.6
15/04:00am 18.4 18.6 17.6 95 0.5 W 13 24 7 13 1001.4 1001.3 2.6
15/03:30am 18.6 19.2 17.6 94 0.6 W 11 24 6 13 1001.0 1000.9 2.6
15/03:00am 19.1 19.4 17.8 92 0.8 W 13 19 7 10 1000.6 1000.5 2.6
15/02:30am 19.5 20.7 18.2 92 0.8 WSW 9 17 5 9 1000.6 1000.5 2.6
15/02:00am 19.6 21.1 18.1 91 0.9 WSW 7 13 4 7 1000.4 1000.3 2.6
15/01:30am 21.0 23.6 19.3 90 1.1 NW 4 7 2 4 1000.4 1000.3 2.6
15/01:00am 21.1 23.9 19.6 91 1.0 NW 4 9 2 5 1000.4 1000.3 2.6
15/12:30am 21.3 22.1 19.8 91 1.0 N 15 22 8 12 999.9 999.8 2.6
15/12:00am 21.8 22.3 19.2 85 1.7 N 15 20 8 11 1000.6 1000.5 2.4
 
Date/Time
EDT
Temp
°C
App
Temp
°C
Dew
Point
°C
Rel
Hum
%
Delta-T
°C
Wind Press
QNH
hPa
Press
MSL
hPa
Rain since
9am
mm
Dir  Spd
km/h
Gust
km/h
Spd
kts
Gust
kts
14/11:30pm 21.9 21.8 18.7 82 2.0 NNE 17 24 9 13 1000.2 1000.1 2.4
14/11:00pm 22.1 21.2 19.1 83 1.9 NE 22 26 12 14 1000.0 999.9 2.4
14/10:30pm 22.0 21.2 19.2 84 1.8 ENE 22 28 12 15 999.9 999.8 2.4
14/10:00pm 22.3 21.0 19.1 82 2.0 NE 24 32 13 17 1000.4 1000.3 2.4
14/09:30pm 22.8 21.1 19.0 79 2.4 NE 26 32 14 17 1000.6 1000.5 2.4
14/09:00pm 22.9 21.2 19.9 83 1.9 ENE 28 33 15 18 1000.6 1000.5 2.4
14/08:30pm 23.5 23.3 20.6 84 1.9 ENE 22 28 12 15 1000.4 1000.3 2.4
14/08:00pm 24.7 25.1 21.0 80 2.4 ENE 20 26 11 14 1000.4 1000.3 2.4
14/07:30pm 25.3 25.4 21.2 78 2.7 ENE 22 30 12 16 1000.3 1000.2 2.4
14/07:00pm 25.7 26.6 21.6 78 2.7 ENE 19 20 10 11 1000.7 1000.6 2.4

Other formats

Comma delimited format used in spreadsheet applications
http://www.bom.gov.au/fwo/IDV60801/IDV60801.94892.axf

JavaScript Object Notation format (JSON) in row-major order
http://www.bom.gov.au/fwo/IDV60801/IDV60801.94892.json

Data quality

Most of these data are generated automatically and are frequently updated. Quality checks on data are not normally performed. It is possible for incorrect values to appear. Refer to information at About Latest Weather Observations and please check the disclaimer before using these data.